createdAt,value
2023-05-25T00:01:56.149Z,7.80
2023-05-25T00:04:27.322Z,7.30
2023-05-25T00:06:55.799Z,6.78
2023-05-25T00:09:25.514Z,7.68
2023-05-25T00:11:54.059Z,6.73
2023-05-25T00:14:22.511Z,6.28
2023-05-25T00:16:51.608Z,6.88
2023-05-25T00:19:20.051Z,6.90
2023-05-25T00:21:50.102Z,6.85
2023-05-25T00:24:18.698Z,7.57
2023-05-25T00:26:47.495Z,7.15
2023-05-25T00:29:15.851Z,8.18
2023-05-25T00:31:44.150Z,7.50
2023-05-25T00:34:12.499Z,7.63
2023-05-25T00:36:43.207Z,7.57
2023-05-25T00:39:13.303Z,7.68
2023-05-25T00:41:42.616Z,8.10
2023-05-25T00:44:11.126Z,7.72
2023-05-25T00:46:39.836Z,8.13
2023-05-25T00:49:08.292Z,8.55
2023-05-25T00:51:37.751Z,8.80
2023-05-25T00:57:53.125Z,8.98
2023-05-25T01:00:21.982Z,9.10
2023-05-25T01:02:56.480Z,9.38
2023-05-25T01:05:29.052Z,8.48
2023-05-25T01:08:01.755Z,8.23
2023-05-25T01:10:34.252Z,8.70
2023-05-25T01:13:04.536Z,8.32
2023-05-25T01:15:34.519Z,8.38
2023-05-25T01:18:03.677Z,8.02
2023-05-25T01:20:32.098Z,8.55
2023-05-25T01:24:17.655Z,9.00
2023-05-25T01:26:55.508Z,8.40
2023-05-25T01:29:27.443Z,8.00
2023-05-25T01:31:57.806Z,8.38
2023-05-25T01:34:27.353Z,8.48
2023-05-25T01:36:56.679Z,7.88
2023-05-25T01:39:25.264Z,7.93
2023-05-25T01:41:55.054Z,8.73
2023-05-25T01:44:23.589Z,8.98
2023-05-25T01:47:00.153Z,8.40
2023-05-25T01:49:35.852Z,8.23
2023-05-25T01:52:14.701Z,7.85
2023-05-25T01:54:53.545Z,8.37
2023-05-25T01:57:24.424Z,8.40
2023-05-25T01:59:57.623Z,8.18
2023-05-25T02:02:27.420Z,9.00
2023-05-25T02:04:56.276Z,8.45
2023-05-25T02:07:25.031Z,8.73
2023-05-25T02:09:53.348Z,8.45
2023-05-25T02:12:23.094Z,8.43
2023-05-25T02:14:51.445Z,8.27
2023-05-25T02:17:19.900Z,8.52
2023-05-25T02:19:52.915Z,8.30
2023-05-25T02:22:21.939Z,9.18
2023-05-25T02:24:50.727Z,8.68
2023-05-25T02:27:18.983Z,8.32
2023-05-25T02:29:48.736Z,8.07
2023-05-25T02:32:17.296Z,8.63
2023-05-25T02:34:46.934Z,8.57
2023-05-25T02:37:15.334Z,8.73
2023-05-25T02:39:44.387Z,8.30
2023-05-25T02:42:15.411Z,9.18
2023-05-25T02:44:48.260Z,9.38
2023-05-25T02:47:19.149Z,9.27
2023-05-25T02:49:48.036Z,9.38
2023-05-25T02:52:16.597Z,9.80
2023-05-25T02:54:44.973Z,8.95
2023-05-25T02:57:19.931Z,9.23
2023-05-25T02:59:48.670Z,9.40
2023-05-25T03:02:21.028Z,9.40
2023-05-25T03:04:53.906Z,9.93
2023-05-25T03:07:23.161Z,9.65
2023-05-25T03:09:51.856Z,10.50
2023-05-25T03:12:20.207Z,9.68
2023-05-25T03:14:48.552Z,9.73
2023-05-25T03:17:19.021Z,10.07
2023-05-25T03:19:47.320Z,9.75
2023-05-25T03:22:15.692Z,10.15
2023-05-25T03:24:43.993Z,9.02
2023-05-25T03:27:12.421Z,10.57
2023-05-25T03:29:40.836Z,9.88
2023-05-25T03:32:10.595Z,10.48
2023-05-25T03:34:41.479Z,11.00
2023-05-25T03:37:10.987Z,10.70
2023-05-25T03:39:39.393Z,11.13
2023-05-25T03:42:11.089Z,10.68
2023-05-25T03:44:41.092Z,10.65
2023-05-25T03:47:09.776Z,10.90
2023-05-25T03:49:38.102Z,11.32
2023-05-25T03:52:08.379Z,10.35
2023-05-25T03:57:06.263Z,11.25
2023-05-25T03:59:34.536Z,10.77
2023-05-25T04:02:02.895Z,11.23
2023-05-25T04:04:31.176Z,11.40
2023-05-25T04:07:00.144Z,12.20
2023-05-25T04:09:29.867Z,11.45
2023-05-25T04:11:58.315Z,11.23
2023-05-25T04:14:26.795Z,11.65
2023-05-25T04:16:55.139Z,12.40
2023-05-25T04:19:23.624Z,12.02
2023-05-25T04:21:51.929Z,11.40
2023-05-25T04:24:20.569Z,11.73
2023-05-25T04:26:50.797Z,11.65
2023-05-25T04:29:19.276Z,12.43
2023-05-25T04:32:09.536Z,11.18
2023-05-25T04:34:52.262Z,11.43
2023-05-25T04:37:27.526Z,11.40
2023-05-25T04:39:58.539Z,11.32
2023-05-25T04:42:31.890Z,12.50
2023-05-25T04:45:01.548Z,12.25
2023-05-25T04:47:31.013Z,11.63
2023-05-25T04:49:59.561Z,11.82
2023-05-25T04:52:27.953Z,11.90
2023-05-25T04:54:56.297Z,11.98
2023-05-25T04:57:24.622Z,11.25
2023-05-25T04:59:54.396Z,10.80
2023-05-25T05:02:22.933Z,11.38
2023-05-25T05:04:53.812Z,11.60
2023-05-25T05:07:22.904Z,11.57
2023-05-25T05:09:51.437Z,11.02
2023-05-25T05:12:21.775Z,11.35
2023-05-25T05:14:55.987Z,11.50
2023-05-25T05:17:26.345Z,10.77
2023-05-25T05:19:54.910Z,10.95
2023-05-25T05:22:24.880Z,11.48
2023-05-25T05:24:53.261Z,11.23
2023-05-25T05:27:27.124Z,12.38
2023-05-25T05:30:01.957Z,11.70
2023-05-25T05:32:30.731Z,11.20
2023-05-25T05:34:59.229Z,11.27
2023-05-25T05:37:39.211Z,11.23
2023-05-25T05:40:10.755Z,11.57
2023-05-25T05:42:40.787Z,10.88
2023-05-25T05:45:12.336Z,10.77
2023-05-25T05:50:10.074Z,9.43
2023-05-25T05:52:40.023Z,9.30
2023-05-25T05:55:09.308Z,9.52
2023-05-25T05:57:39.980Z,9.70
2023-05-25T06:00:11.948Z,9.30
2023-05-25T06:02:47.371Z,9.50
2023-05-25T06:05:21.805Z,8.70
2023-05-25T06:07:50.311Z,9.07
2023-05-25T06:10:20.578Z,9.35
2023-05-25T06:12:49.770Z,8.52
2023-05-25T06:15:19.672Z,9.07
2023-05-25T06:17:49.636Z,8.02
2023-05-25T06:20:19.000Z,8.85
2023-05-25T06:22:48.199Z,8.85
2023-05-25T06:25:17.554Z,9.20
2023-05-25T06:27:46.386Z,9.98
2023-05-25T06:30:15.668Z,8.95
2023-05-25T06:32:46.089Z,8.82
2023-05-25T06:35:19.614Z,8.68
2023-05-25T06:37:50.798Z,9.18
2023-05-25T06:40:20.697Z,9.15
2023-05-25T06:42:49.266Z,8.95
2023-05-25T06:45:42.741Z,8.60
2023-05-25T06:48:12.697Z,9.70
2023-05-25T06:50:42.354Z,8.40
2023-05-25T06:53:11.440Z,8.45
2023-05-25T06:55:41.511Z,8.27
2023-05-25T06:58:10.068Z,8.70
2023-05-25T07:00:38.431Z,8.75
2023-05-25T07:03:06.824Z,9.52
2023-05-25T07:05:36.537Z,8.38
2023-05-25T07:08:04.945Z,8.83
2023-05-25T07:10:33.255Z,8.50
2023-05-25T07:13:01.589Z,8.40
2023-05-25T07:15:29.845Z,8.13
2023-05-25T07:17:58.847Z,7.65
2023-05-25T07:20:27.521Z,8.57
2023-05-25T07:22:57.287Z,7.97
2023-05-25T07:25:25.564Z,8.77
2023-05-25T07:27:55.174Z,8.65
2023-05-25T07:30:23.799Z,7.70
2023-05-25T07:32:52.216Z,6.97
2023-05-25T07:35:20.764Z,7.10
2023-05-25T07:37:59.553Z,6.78
2023-05-25T07:40:28.608Z,6.97
2023-05-25T07:42:57.109Z,7.65
2023-05-25T07:45:25.457Z,7.18
2023-05-25T07:47:53.863Z,7.95
2023-05-25T07:52:51.979Z,8.00
2023-05-25T07:55:21.756Z,8.27
2023-05-25T07:57:50.075Z,8.18
2023-05-25T08:00:20.470Z,8.65
2023-05-25T08:02:48.870Z,9.75
2023-05-25T08:05:17.487Z,9.25
2023-05-25T08:07:46.857Z,8.52
2023-05-25T08:10:15.342Z,8.88
2023-05-25T08:12:49.579Z,9.10
2023-05-25T08:15:18.864Z,9.63
2023-05-25T08:17:49.387Z,9.02
2023-05-25T08:22:46.492Z,9.23
2023-05-25T08:25:14.835Z,8.35
2023-05-25T08:27:44.544Z,8.40
2023-05-25T08:30:13.647Z,8.33
2023-05-25T08:32:42.083Z,8.20
2023-05-25T08:35:11.124Z,7.90
2023-05-25T08:37:40.084Z,7.43
2023-05-25T08:40:15.507Z,7.15
2023-05-25T08:42:45.934Z,7.60
2023-05-25T08:45:22.513Z,7.40
2023-05-25T08:48:02.698Z,7.10
2023-05-25T08:50:33.662Z,7.40
2023-05-25T08:53:04.633Z,6.88
2023-05-25T08:55:36.690Z,6.95
2023-05-25T08:58:16.253Z,6.70
2023-05-25T09:00:53.268Z,6.93
2023-05-25T09:03:22.168Z,7.20
2023-05-25T09:05:51.423Z,6.75
2023-05-25T09:08:21.654Z,6.32
2023-05-25T09:10:51.459Z,7.05
2023-05-25T09:13:22.827Z,7.00
2023-05-25T09:15:52.985Z,7.28
2023-05-25T09:18:21.488Z,6.63
2023-05-25T09:20:50.281Z,7.50
2023-05-25T09:23:18.961Z,6.60
2023-05-25T09:25:50.692Z,6.35
2023-05-25T09:30:53.580Z,6.72
2023-05-25T09:33:22.183Z,6.10
2023-05-25T09:35:51.522Z,6.15
2023-05-25T09:38:20.483Z,5.95
2023-05-25T09:40:49.151Z,6.78
2023-05-25T09:43:32.286Z,6.80
2023-05-25T09:46:07.953Z,6.10
2023-05-25T09:48:36.939Z,6.25
2023-05-25T09:51:06.513Z,6.40
2023-05-25T09:53:34.859Z,6.05
2023-05-25T09:56:04.403Z,5.65
2023-05-25T09:58:32.849Z,5.97
2023-05-25T10:01:01.438Z,5.55
2023-05-25T10:03:31.518Z,5.93
2023-05-25T10:06:00.040Z,6.07
2023-05-25T10:08:30.063Z,6.07
2023-05-25T10:10:58.461Z,6.90
2023-05-25T10:13:28.496Z,5.47
2023-05-25T10:15:58.232Z,6.18
2023-05-25T10:18:35.778Z,5.87
2023-05-25T10:21:06.880Z,6.43
2023-05-25T10:23:41.917Z,6.45
2023-05-25T10:26:11.201Z,7.40
2023-05-25T10:28:42.087Z,6.53
2023-05-25T10:31:11.803Z,6.53
2023-05-25T10:33:43.327Z,6.73
2023-05-25T10:36:14.455Z,6.43
2023-05-25T10:38:44.797Z,6.50
2023-05-25T10:41:13.410Z,6.93
2023-05-25T10:43:42.197Z,6.13
2023-05-25T10:46:12.137Z,7.05
2023-05-25T10:48:47.704Z,7.00
2023-05-25T10:51:16.170Z,7.53
2023-05-25T10:53:50.986Z,7.05
2023-05-25T10:56:19.371Z,7.28
2023-05-25T10:58:48.006Z,6.85
2023-05-25T11:01:17.173Z,6.85
2023-05-25T11:04:17.131Z,6.85
2023-05-25T11:07:13.542Z,7.53
2023-05-25T11:09:57.698Z,7.15
2023-05-25T11:12:26.157Z,7.13
2023-05-25T11:15:16.261Z,7.88
2023-05-25T11:18:03.664Z,7.15
2023-05-25T11:20:33.964Z,7.88
2023-05-25T11:23:25.374Z,7.35
2023-05-25T11:25:53.694Z,7.35
2023-05-25T11:28:24.299Z,7.50
2023-05-25T11:33:23.845Z,7.93
2023-05-25T11:35:57.589Z,8.23
2023-05-25T11:38:27.449Z,8.35
2023-05-25T11:40:55.876Z,8.45
2023-05-25T11:43:25.765Z,8.13
2023-05-25T11:45:57.821Z,8.95
2023-05-25T11:48:26.408Z,7.55
2023-05-25T11:51:07.877Z,8.05
2023-05-25T11:53:36.576Z,6.85
2023-05-25T11:56:08.393Z,6.40
2023-05-25T11:58:37.513Z,7.18
2023-05-25T12:01:17.078Z,6.47
2023-05-25T12:03:46.696Z,6.65
2023-05-25T12:06:31.554Z,6.90
2023-05-25T12:09:01.281Z,6.57
2023-05-25T12:11:31.473Z,6.78
2023-05-25T12:14:00.771Z,6.72
2023-05-25T12:16:29.566Z,7.13
2023-05-25T12:18:58.807Z,7.00
2023-05-25T12:21:28.798Z,6.65
2023-05-25T12:23:57.362Z,6.80
2023-05-25T12:26:26.385Z,6.18
2023-05-25T12:29:01.749Z,6.95
2023-05-25T12:31:31.953Z,6.35
2023-05-25T12:34:12.046Z,6.20
2023-05-25T12:36:44.626Z,5.97
2023-05-25T12:39:15.485Z,7.18
2023-05-25T12:41:46.325Z,6.13
2023-05-25T12:44:25.204Z,6.50
2023-05-25T12:46:55.588Z,6.05
2023-05-25T12:49:32.954Z,5.32
2023-05-25T12:52:05.398Z,5.40
2023-05-25T12:54:45.216Z,5.75
2023-05-25T12:57:16.229Z,5.97
2023-05-25T12:59:46.741Z,6.53
2023-05-25T13:02:15.934Z,5.55
2023-05-25T13:04:44.632Z,5.20
2023-05-25T13:07:14.392Z,5.35
2023-05-25T13:09:42.815Z,6.27
2023-05-25T13:12:11.248Z,5.40
2023-05-25T13:14:39.583Z,5.78
2023-05-25T13:17:07.897Z,5.85
2023-05-25T13:19:36.242Z,5.05
2023-05-25T13:22:04.524Z,6.00
2023-05-25T13:24:34.254Z,6.18
2023-05-25T13:27:02.557Z,6.60
2023-05-25T13:29:30.867Z,6.72
2023-05-25T13:31:59.248Z,6.07
2023-05-25T13:34:27.758Z,6.43
2023-05-25T13:36:56.542Z,7.03
2023-05-25T13:39:24.867Z,5.70
2023-05-25T13:41:54.471Z,6.45
2023-05-25T13:44:22.793Z,6.55
2023-05-25T13:46:51.147Z,6.75
2023-05-25T13:49:19.807Z,6.32
2023-05-25T13:51:48.208Z,6.63
2023-05-25T13:54:16.624Z,6.15
2023-05-25T13:56:44.961Z,6.75
2023-05-25T13:59:14.595Z,6.20
2023-05-25T14:01:42.982Z,6.50
2023-05-25T14:04:12.517Z,6.43
2023-05-25T14:06:40.953Z,7.97
2023-05-25T14:09:09.950Z,6.53
2023-05-25T14:11:39.602Z,6.55
2023-05-25T14:14:13.783Z,5.70
2023-05-25T14:16:46.385Z,5.72
2023-05-25T14:19:16.801Z,6.23
2023-05-25T14:21:45.318Z,6.03
2023-05-25T14:24:13.882Z,6.38
2023-05-25T14:26:43.677Z,6.50
2023-05-25T14:29:13.020Z,6.80
2023-05-25T14:31:41.456Z,6.40
2023-05-25T14:34:11.283Z,7.05
2023-05-25T14:36:39.572Z,7.40
2023-05-25T14:39:08.753Z,7.55
2023-05-25T14:41:38.404Z,7.13
2023-05-25T14:44:06.884Z,7.15
2023-05-25T14:46:35.490Z,7.47
2023-05-25T14:49:03.962Z,6.97
2023-05-25T14:51:33.933Z,7.30
2023-05-25T14:54:03.591Z,7.43
2023-05-25T14:56:31.983Z,7.78
2023-05-25T14:59:00.305Z,7.05
2023-05-25T15:01:29.774Z,7.13
2023-05-25T15:03:58.403Z,8.07
2023-05-25T15:06:26.773Z,8.40
2023-05-25T15:08:56.470Z,6.82
2023-05-25T15:11:24.869Z,7.40
2023-05-25T15:13:53.193Z,7.05
2023-05-25T15:16:21.717Z,7.43
2023-05-25T15:18:50.939Z,8.38
2023-05-25T15:21:19.324Z,8.05
2023-05-25T15:23:47.754Z,8.43
2023-05-25T15:26:17.443Z,8.50
2023-05-25T15:28:45.779Z,9.10
2023-05-25T15:31:14.118Z,8.27
2023-05-25T15:33:50.014Z,9.30
2023-05-25T15:36:20.279Z,7.50
2023-05-25T15:38:49.650Z,8.80
2023-05-25T15:41:19.452Z,8.75
2023-05-25T15:43:54.509Z,8.63
2023-05-25T15:46:23.130Z,8.93
2023-05-25T15:48:51.505Z,8.70
2023-05-25T15:51:19.873Z,8.55
2023-05-25T15:53:48.351Z,11.27
2023-05-25T15:56:18.211Z,10.40
2023-05-25T15:58:48.963Z,8.70
2023-05-25T16:01:17.451Z,10.27
2023-05-25T16:03:45.920Z,10.02
2023-05-25T16:06:14.262Z,8.70
2023-05-25T16:08:42.572Z,8.73
2023-05-25T16:11:10.960Z,9.00
2023-05-25T16:13:40.770Z,9.13
2023-05-25T16:16:09.770Z,10.23
2023-05-25T16:18:38.192Z,9.38
2023-05-25T16:21:07.043Z,9.98
2023-05-25T16:23:35.446Z,10.63
2023-05-25T16:26:03.724Z,8.27
2023-05-25T16:28:32.054Z,9.00
2023-05-25T16:31:01.755Z,9.30
2023-05-25T16:33:30.131Z,8.97
2023-05-25T16:35:58.448Z,9.98
2023-05-25T16:38:26.969Z,8.65
2023-05-25T16:40:55.318Z,9.90
2023-05-25T16:43:25.201Z,10.40
2023-05-25T16:45:54.144Z,9.63
2023-05-25T16:48:24.133Z,9.18
2023-05-25T16:50:52.580Z,10.50
2023-05-25T16:53:20.929Z,9.00
2023-05-25T16:55:49.315Z,9.50
2023-05-25T16:58:17.855Z,9.30
2023-05-25T17:00:46.215Z,8.70
2023-05-25T17:03:14.889Z,9.50
2023-05-25T17:05:45.048Z,9.43
2023-05-25T17:08:13.582Z,8.93
2023-05-25T17:10:42.668Z,8.82
2023-05-25T17:13:11.008Z,9.88
2023-05-25T17:15:39.397Z,8.40
2023-05-25T17:18:08.228Z,9.43
2023-05-25T17:20:36.695Z,9.45
2023-05-25T17:23:06.673Z,9.32
2023-05-25T17:25:35.122Z,9.43
2023-05-25T17:28:03.429Z,9.32
2023-05-25T17:30:32.005Z,10.05
2023-05-25T17:33:01.690Z,9.23
2023-05-25T17:35:30.292Z,10.05
2023-05-25T17:37:58.667Z,8.82
2023-05-25T17:40:28.339Z,8.57
2023-05-25T17:42:56.894Z,8.73
2023-05-25T17:45:25.528Z,8.80
2023-05-25T17:47:54.222Z,9.82
2023-05-25T17:50:22.570Z,9.95
2023-05-25T17:52:51.022Z,9.10
2023-05-25T17:55:20.535Z,9.32
2023-05-25T17:57:50.246Z,9.00
2023-05-25T18:00:22.886Z,9.70
2023-05-25T18:02:51.979Z,9.27
2023-05-25T18:05:20.679Z,9.45
2023-05-25T18:07:49.199Z,9.77
2023-05-25T18:10:17.622Z,10.68
2023-05-25T18:12:49.211Z,8.73
2023-05-25T18:15:19.022Z,10.00
2023-05-25T18:17:47.641Z,9.75
2023-05-25T18:20:16.167Z,8.65
2023-05-25T18:22:44.519Z,9.20
2023-05-25T18:25:12.860Z,9.38
2023-05-25T18:27:41.215Z,9.02
2023-05-25T18:30:11.142Z,9.43
2023-05-25T18:32:40.958Z,10.35
2023-05-25T18:35:10.220Z,9.33
2023-05-25T18:37:38.507Z,9.02
2023-05-25T18:40:08.723Z,9.50
2023-05-25T18:42:37.053Z,10.38
2023-05-25T18:45:06.538Z,10.30
2023-05-25T18:47:34.895Z,9.63
2023-05-25T18:50:04.835Z,10.52
2023-05-25T18:52:33.121Z,9.88
2023-05-25T18:55:01.488Z,10.20
2023-05-25T18:57:29.762Z,8.95
2023-05-25T18:59:58.120Z,9.70
2023-05-25T19:02:26.704Z,9.60
2023-05-25T19:04:55.028Z,8.82
2023-05-25T19:07:24.725Z,10.40
2023-05-25T19:09:53.139Z,10.33
2023-05-25T19:12:21.541Z,9.65
2023-05-25T19:14:49.886Z,9.60
2023-05-25T19:17:18.338Z,9.88
2023-05-25T19:19:46.703Z,9.40
2023-05-25T19:22:15.040Z,9.20
2023-05-25T19:24:48.603Z,10.52
2023-05-25T19:27:19.910Z,9.85
2023-05-25T19:29:48.417Z,9.18
2023-05-25T19:32:17.394Z,10.27
2023-05-25T19:34:46.382Z,9.55
2023-05-25T19:37:14.755Z,9.75
2023-05-25T19:39:44.596Z,10.50
2023-05-25T19:42:12.963Z,9.75
2023-05-25T19:44:41.641Z,10.00
2023-05-25T19:47:10.041Z,8.90
2023-05-25T19:49:38.428Z,9.82
2023-05-25T19:52:07.510Z,9.52
2023-05-25T19:54:35.914Z,9.82
2023-05-25T19:57:06.797Z,9.63
2023-05-25T19:59:36.871Z,9.50
2023-05-25T20:02:05.898Z,8.93
2023-05-25T20:04:34.358Z,10.30
2023-05-25T20:07:02.799Z,10.10
2023-05-25T20:09:31.226Z,8.85
2023-05-25T20:12:00.812Z,9.52
2023-05-25T20:14:31.218Z,10.05
2023-05-25T20:16:59.688Z,10.35
2023-05-25T20:19:28.072Z,8.65
2023-05-25T20:21:57.856Z,10.00
2023-05-25T20:24:26.211Z,9.52
2023-05-25T20:26:56.856Z,9.25
2023-05-25T20:29:25.733Z,9.82
2023-05-25T20:31:55.550Z,8.98
2023-05-25T20:34:23.927Z,9.52
2023-05-25T20:36:52.267Z,8.95
2023-05-25T20:39:20.944Z,9.80
2023-05-25T20:41:49.243Z,8.90
2023-05-25T20:44:17.624Z,8.68
2023-05-25T20:46:46.027Z,9.82
2023-05-25T20:49:15.771Z,9.77
2023-05-25T20:51:49.742Z,9.27
2023-05-25T20:54:18.341Z,9.52
2023-05-25T20:56:48.055Z,10.13
2023-05-25T20:59:16.445Z,9.27
2023-05-25T21:01:45.275Z,9.45
2023-05-25T21:04:15.115Z,9.38
2023-05-25T21:06:43.453Z,9.77
2023-05-25T21:09:12.129Z,9.93
2023-05-25T21:11:40.584Z,10.18
2023-05-25T21:14:09.129Z,9.57
2023-05-25T21:16:37.688Z,9.63
2023-05-25T21:19:06.075Z,9.30
2023-05-25T21:21:36.132Z,8.82
2023-05-25T21:24:05.380Z,10.13
2023-05-25T21:26:33.782Z,9.95
2023-05-25T21:29:02.339Z,9.27
2023-05-25T21:31:30.736Z,9.63
2023-05-25T21:34:00.094Z,9.73
2023-05-25T21:36:28.790Z,9.00
2023-05-25T21:38:58.510Z,8.85
2023-05-25T21:41:27.278Z,9.13
2023-05-25T21:43:55.632Z,9.27
2023-05-25T21:46:23.942Z,9.45
2023-05-25T21:48:52.295Z,10.13
2023-05-25T21:51:20.598Z,9.45
2023-05-25T21:53:48.941Z,9.40
2023-05-25T21:56:18.754Z,9.30
2023-05-25T21:58:47.499Z,10.20
2023-05-25T22:01:15.895Z,10.68
2023-05-25T22:03:44.272Z,9.93
2023-05-25T22:06:12.665Z,9.82
2023-05-25T22:08:41.148Z,9.80
2023-05-25T22:11:09.487Z,9.20
2023-05-25T22:13:39.249Z,9.90
2023-05-25T22:16:07.997Z,9.83
2023-05-25T22:18:38.449Z,10.20
2023-05-25T22:23:35.238Z,10.20
2023-05-25T22:26:04.979Z,10.77
2023-05-25T22:28:33.413Z,9.27
2023-05-25T22:31:03.165Z,9.88
2023-05-25T22:33:31.522Z,9.60
2023-05-25T22:35:59.937Z,9.45
2023-05-25T22:38:30.050Z,10.10
2023-05-25T22:40:58.328Z,9.43
2023-05-25T22:43:27.042Z,9.10
2023-05-25T22:45:56.951Z,9.95
2023-05-25T22:48:27.709Z,10.17
2023-05-25T22:53:24.197Z,10.15
2023-05-25T22:55:52.634Z,10.02
2023-05-25T22:58:21.053Z,10.57
2023-05-25T23:00:49.395Z,9.15
2023-05-25T23:03:17.850Z,9.07
2023-05-25T23:05:47.922Z,9.55
2023-05-25T23:08:16.333Z,9.27
2023-05-25T23:10:44.749Z,10.38
2023-05-25T23:13:14.978Z,9.57
2023-05-25T23:15:44.872Z,9.73
2023-05-25T23:18:13.428Z,9.35
2023-05-25T23:20:41.925Z,10.05
2023-05-25T23:23:11.734Z,10.70
2023-05-25T23:25:40.111Z,8.90
2023-05-25T23:28:08.509Z,10.05
2023-05-25T23:30:37.859Z,9.73
2023-05-25T23:33:08.450Z,10.20
2023-05-25T23:35:36.897Z,9.65
2023-05-25T23:38:05.507Z,9.30
2023-05-25T23:40:35.183Z,9.52
2023-05-25T23:43:03.572Z,9.85
2023-05-25T23:45:31.936Z,9.32
2023-05-25T23:48:00.608Z,9.50
2023-05-25T23:50:28.915Z,8.98
2023-05-25T23:52:57.341Z,10.20
2023-05-25T23:55:25.699Z,9.65
2023-05-25T23:57:55.406Z,9.43
